EDT,Max TemperatureF,Mean TemperatureF,Min TemperatureF,Max Dew PointF,MeanDew PointF,Min DewpointF,Max Humidity, Mean Humidity, Min Humidity, Max Sea Level PressureIn, Mean Sea Level PressureIn, Min Sea Level PressureIn, Max VisibilityMiles, Mean VisibilityMiles, Min VisibilityMiles, Max Wind SpeedMPH, Mean Wind SpeedMPH, Max Gust SpeedMPH,PrecipitationIn, CloudCover, Events, WindDirDegrees
2013-5-1,75,63,51,46,38,27,80,46,21,30.37,30.32,30.25,10,10,10,12,7,21,0.00,0,,156
2013-5-2,75,60,46,36,28,18,61,32,12,30.41,30.34,30.28,10,10,10,14,7,21,0.00,0,,146
2013-5-3,73,60,46,38,36,32,63,40,25,30.31,30.27,30.22,10,10,10,14,6,21,0.00,0,,148
2013-5-4,72,56,39,37,34,32,79,45,25,30.27,30.21,30.15,10,10,10,15,7,24,0.00,0,,136
2013-5-5,73,57,41,40,27,7,82,38,9,30.20,30.15,30.10,10,10,10,17,5,25,0.00,0,,137
2013-5-6,75,54,36,46,36,26,79,47,23,30.14,30.11,30.05,10,10,10,10,5,17,0.00,0,,151
2013-5-7,75,60,44,49,43,36,86,62,25,30.10,30.07,30.00,10,8,2,14,4,21,0.00,2,,122
2013-5-8,61,56,52,54,51,47,87,78,67,30.05,30.00,29.94,10,9,2,10,4,,0.11,7,Rain,97
2013-5-9,68,58,48,56,51,44,89,79,52,30.01,29.94,29.89,10,9,4,15,3,24,0.14,7,Rain,307
2013-5-10,72,57,42,54,51,38,88,78,51,30.01,29.89,29.76,10,8,2,16,5,28,0.42,6,Rain,196
2013-5-11,59,54,46,54,47,41,87,78,64,29.79,29.76,29.70,10,10,2,15,7,21,0.13,8,Rain,259
2013-5-12,48,42,35,43,32,25,83,72,48,30.00,29.85,29.75,10,8,1,21,10,32,0.07,7,Rain-Snow,278
2013-5-13,41,34,28,27,26,23,82,72,53,30.17,30.05,29.94,10,7,0,16,8,21,0.02,7,Snow,275
2013-5-14,52,38,24,37,26,18,85,61,31,30.18,30.11,29.97,10,10,10,9,3,,0.00,5,,187
2013-5-15,81,63,46,55,44,34,77,54,29,29.95,29.78,29.68,10,10,10,18,9,37,0.00,3,Rain,203
2013-5-16,77,62,48,47,39,33,86,51,22,30.02,29.87,29.78,10,10,10,28,6,37,0.00,1,,307
2013-5-17,73,56,39,39,35,23,83,47,15,30.21,30.12,30.02,10,10,10,10,3,,0.00,1,,40
2013-5-18,71,62,52,51,42,35,80,54,41,30.21,30.18,30.14,10,10,10,8,6,,0.00,5,,116
2013-5-19,73,65,57,57,55,50,87,72,55,30.19,30.12,30.06,10,9,2,14,8,22,0.00,6,,155
2013-5-20,84,72,61,60,58,56,87,69,42,30.10,30.02,29.93,10,8,4,10,5,17,0.00,5,,165
2013-5-21,84,74,64,64,61,57,90,69,41,30.01,29.92,29.81,10,7,2,15,4,20,0.00,4,,225
2013-5-22,84,72,62,62,59,54,90,71,38,29.93,29.84,29.75,10,8,1,17,5,43,0.25,3,Rain,202
2013-5-23,71,62,51,59,55,48,89,82,65,29.84,29.81,29.76,10,7,1,17,8,32,0.78,7,Rain,267
2013-5-24,46,44,35,46,35,31,90,81,70,30.23,30.06,29.85,10,8,2,20,14,28,0.03,8,Rain,325
2013-5-25,55,45,35,33,31,27,82,62,35,30.25,30.21,30.17,10,10,10,23,10,31,0.00,3,,321
2013-5-26,62,47,34,34,30,28,82,54,31,30.26,30.21,30.17,10,10,10,20,8,28,0.00,0,,306
2013-5-27,71,50,30,41,31,24,85,50,18,30.29,30.23,30.15,10,10,10,8,1,,0.00,0,,289
2013-5-28,72,61,50,63,54,42,88,80,66,30.17,30.07,30.00,10,6,1,16,6,25,1.31,7,Rain,171
2013-5-29,82,72,62,62,60,58,87,72,47,30.13,30.05,29.99,10,8,1,13,5,21,0.60,4,Rain,209
2013-5-30,82,70,60,62,59,56,93,67,44,30.23,30.15,30.10,10,9,2,13,3,,0.00,1,,231
2013-5-31,84,70,57,63,57,54,93,69,38,30.18,30.10,30.00,10,7,1,10,3,18,0.00,1,,204